sensor_id;sensor_type;location;lat;lon;timestamp;temperature;humidity
15615;DHT22;7907;51.368;6.730;2022-08-19T00:00:23;20.10;99.90
15615;DHT22;7907;51.368;6.730;2022-08-19T00:02:51;20.00;99.90
15615;DHT22;7907;51.368;6.730;2022-08-19T00:05:19;20.00;99.90
15615;DHT22;7907;51.368;6.730;2022-08-19T00:07:48;20.00;99.90
15615;DHT22;7907;51.368;6.730;2022-08-19T00:10:16;20.00;99.90
15615;DHT22;7907;51.368;6.730;2022-08-19T00:12:44;19.90;99.90
15615;DHT22;7907;51.368;6.730;2022-08-19T00:15:14;19.90;99.90
15615;DHT22;7907;51.368;6.730;2022-08-19T00:17:43;19.90;99.90
15615;DHT22;7907;51.368;6.730;2022-08-19T00:20:17;19.80;99.90
15615;DHT22;7907;51.368;6.730;2022-08-19T00:22:45;19.80;99.90
15615;DHT22;7907;51.368;6.730;2022-08-19T00:25:12;19.80;99.90
15615;DHT22;7907;51.368;6.730;2022-08-19T00:27:40;19.70;99.90
15615;DHT22;7907;51.368;6.730;2022-08-19T00:30:08;19.70;99.90
15615;DHT22;7907;51.368;6.730;2022-08-19T00:32:35;19.70;99.90
15615;DHT22;7907;51.368;6.730;2022-08-19T00:35:05;19.70;99.90
15615;DHT22;7907;51.368;6.730;2022-08-19T00:37:34;19.70;99.90
15615;DHT22;7907;51.368;6.730;2022-08-19T00:40:02;19.60;99.90
15615;DHT22;7907;51.368;6.730;2022-08-19T00:42:30;19.60;99.90
15615;DHT22;7907;51.368;6.730;2022-08-19T00:44:58;19.60;99.90
15615;DHT22;7907;51.368;6.730;2022-08-19T00:47:25;19.60;99.90
15615;DHT22;7907;51.368;6.730;2022-08-19T00:49:55;19.60;99.90
15615;DHT22;7907;51.368;6.730;2022-08-19T00:52:26;19.60;99.90
15615;DHT22;7907;51.368;6.730;2022-08-19T00:54:57;19.50;99.90
15615;DHT22;7907;51.368;6.730;2022-08-19T00:57:31;19.50;99.90
15615;DHT22;7907;51.368;6.730;2022-08-19T01:00:00;19.50;99.90
15615;DHT22;7907;51.368;6.730;2022-08-19T01:02:28;19.40;99.90
15615;DHT22;7907;51.368;6.730;2022-08-19T01:04:56;19.40;99.90
15615;DHT22;7907;51.368;6.730;2022-08-19T01:07:23;19.40;99.90
15615;DHT22;7907;51.368;6.730;2022-08-19T01:09:51;19.40;99.90
15615;DHT22;7907;51.368;6.730;2022-08-19T01:12:21;19.40;99.90
15615;DHT22;7907;51.368;6.730;2022-08-19T01:14:49;19.30;99.90
15615;DHT22;7907;51.368;6.730;2022-08-19T01:17:17;19.30;99.90
15615;DHT22;7907;51.368;6.730;2022-08-19T01:19:45;19.30;99.90
15615;DHT22;7907;51.368;6.730;2022-08-19T01:22:18;19.30;99.90
15615;DHT22;7907;51.368;6.730;2022-08-19T01:24:48;19.20;99.90
15615;DHT22;7907;51.368;6.730;2022-08-19T01:27:15;19.20;99.90
15615;DHT22;7907;51.368;6.730;2022-08-19T01:29:44;19.20;99.90
15615;DHT22;7907;51.368;6.730;2022-08-19T01:32:13;19.20;99.90
15615;DHT22;7907;51.368;6.730;2022-08-19T01:34:41;19.10;99.90
15615;DHT22;7907;51.368;6.730;2022-08-19T01:37:13;19.10;99.90
15615;DHT22;7907;51.368;6.730;2022-08-19T01:39:42;19.10;99.90
15615;DHT22;7907;51.368;6.730;2022-08-19T01:42:10;19.10;99.90
15615;DHT22;7907;51.368;6.730;2022-08-19T01:44:38;19.10;99.90
15615;DHT22;7907;51.368;6.730;2022-08-19T01:47:07;19.10;99.90
15615;DHT22;7907;51.368;6.730;2022-08-19T01:49:36;19.00;99.90
15615;DHT22;7907;51.368;6.730;2022-08-19T01:52:04;19.00;99.90
15615;DHT22;7907;51.368;6.730;2022-08-19T01:54:32;19.00;99.90
15615;DHT22;7907;51.368;6.730;2022-08-19T01:57:03;19.00;99.90
15615;DHT22;7907;51.368;6.730;2022-08-19T01:59:33;18.90;99.90
15615;DHT22;7907;51.368;6.730;2022-08-19T02:02:02;18.90;99.90
15615;DHT22;7907;51.368;6.730;2022-08-19T02:04:32;18.90;99.90
15615;DHT22;7907;51.368;6.730;2022-08-19T02:07:00;18.90;99.90
15615;DHT22;7907;51.368;6.730;2022-08-19T02:09:27;18.90;99.90
15615;DHT22;7907;51.368;6.730;2022-08-19T02:11:54;18.80;99.90
15615;DHT22;7907;51.368;6.730;2022-08-19T02:14:22;18.80;99.90
15615;DHT22;7907;51.368;6.730;2022-08-19T02:17:06;18.80;99.90
15615;DHT22;7907;51.368;6.730;2022-08-19T02:19:38;18.80;99.90
15615;DHT22;7907;51.368;6.730;2022-08-19T02:22:06;18.70;99.90
15615;DHT22;7907;51.368;6.730;2022-08-19T02:24:34;18.70;99.90
15615;DHT22;7907;51.368;6.730;2022-08-19T02:27:01;18.70;99.90
15615;DHT22;7907;51.368;6.730;2022-08-19T02:29:30;18.70;99.90
15615;DHT22;7907;51.368;6.730;2022-08-19T02:31:57;18.70;99.90
15615;DHT22;7907;51.368;6.730;2022-08-19T02:34:26;18.70;99.90
15615;DHT22;7907;51.368;6.730;2022-08-19T02:36:55;18.70;99.90
15615;DHT22;7907;51.368;6.730;2022-08-19T02:39:23;18.60;99.90
15615;DHT22;7907;51.368;6.730;2022-08-19T02:41:56;18.60;99.90
15615;DHT22;7907;51.368;6.730;2022-08-19T02:44:25;18.60;99.90
15615;DHT22;7907;51.368;6.730;2022-08-19T02:46:53;18.60;99.90
15615;DHT22;7907;51.368;6.730;2022-08-19T02:49:20;18.60;99.90
15615;DHT22;7907;51.368;6.730;2022-08-19T02:51:50;18.60;99.90
15615;DHT22;7907;51.368;6.730;2022-08-19T02:54:17;18.60;99.90
15615;DHT22;7907;51.368;6.730;2022-08-19T02:56:44;18.60;99.90
15615;DHT22;7907;51.368;6.730;2022-08-19T02:59:12;18.60;99.90
15615;DHT22;7907;51.368;6.730;2022-08-19T03:01:40;18.60;99.90
15615;DHT22;7907;51.368;6.730;2022-08-19T03:04:09;18.60;99.90
15615;DHT22;7907;51.368;6.730;2022-08-19T03:06:37;18.60;99.90
15615;DHT22;7907;51.368;6.730;2022-08-19T03:09:06;18.50;99.90
15615;DHT22;7907;51.368;6.730;2022-08-19T03:11:34;18.50;99.90
15615;DHT22;7907;51.368;6.730;2022-08-19T03:14:03;18.50;99.90
15615;DHT22;7907;51.368;6.730;2022-08-19T03:16:33;18.50;99.90
15615;DHT22;7907;51.368;6.730;2022-08-19T03:19:02;18.50;99.90
15615;DHT22;7907;51.368;6.730;2022-08-19T03:21:32;18.50;99.90
15615;DHT22;7907;51.368;6.730;2022-08-19T03:24:03;18.40;99.90
15615;DHT22;7907;51.368;6.730;2022-08-19T03:26:34;18.40;99.90
15615;DHT22;7907;51.368;6.730;2022-08-19T03:29:05;18.40;99.90
15615;DHT22;7907;51.368;6.730;2022-08-19T03:31:32;18.40;99.90
15615;DHT22;7907;51.368;6.730;2022-08-19T03:33:59;18.30;99.90
15615;DHT22;7907;51.368;6.730;2022-08-19T03:36:27;18.30;99.90
15615;DHT22;7907;51.368;6.730;2022-08-19T03:38:56;18.30;99.90
15615;DHT22;7907;51.368;6.730;2022-08-19T03:41:25;18.40;99.90
15615;DHT22;7907;51.368;6.730;2022-08-19T03:43:55;18.30;99.90
15615;DHT22;7907;51.368;6.730;2022-08-19T03:46:24;18.40;99.90
15615;DHT22;7907;51.368;6.730;2022-08-19T03:48:55;18.40;99.90
15615;DHT22;7907;51.368;6.730;2022-08-19T03:51:24;18.40;99.90
15615;DHT22;7907;51.368;6.730;2022-08-19T03:53:53;18.40;99.90
15615;DHT22;7907;51.368;6.730;2022-08-19T03:56:21;18.40;99.90
15615;DHT22;7907;51.368;6.730;2022-08-19T03:58:48;18.40;99.90
15615;DHT22;7907;51.368;6.730;2022-08-19T04:01:19;18.40;99.90
15615;DHT22;7907;51.368;6.730;2022-08-19T04:03:47;18.30;99.90
15615;DHT22;7907;51.368;6.730;2022-08-19T04:06:17;18.30;99.90
15615;DHT22;7907;51.368;6.730;2022-08-19T04:08:48;18.30;99.90
15615;DHT22;7907;51.368;6.730;2022-08-19T04:11:17;18.30;99.90
15615;DHT22;7907;51.368;6.730;2022-08-19T04:13:46;18.30;99.90
15615;DHT22;7907;51.368;6.730;2022-08-19T04:16:13;18.30;99.90
15615;DHT22;7907;51.368;6.730;2022-08-19T04:18:43;18.20;99.90
15615;DHT22;7907;51.368;6.730;2022-08-19T04:21:16;18.20;99.90
15615;DHT22;7907;51.368;6.730;2022-08-19T04:23:45;18.20;99.90
15615;DHT22;7907;51.368;6.730;2022-08-19T04:26:13;18.20;99.90
15615;DHT22;7907;51.368;6.730;2022-08-19T04:28:41;18.20;99.90
15615;DHT22;7907;51.368;6.730;2022-08-19T04:31:13;18.20;99.90
15615;DHT22;7907;51.368;6.730;2022-08-19T04:33:43;18.20;99.90
15615;DHT22;7907;51.368;6.730;2022-08-19T04:36:16;18.10;99.90
15615;DHT22;7907;51.368;6.730;2022-08-19T04:38:46;18.10;99.90
15615;DHT22;7907;51.368;6.730;2022-08-19T04:41:14;18.10;99.90
15615;DHT22;7907;51.368;6.730;2022-08-19T04:43:59;18.10;99.90
15615;DHT22;7907;51.368;6.730;2022-08-19T04:46:28;18.10;99.90
15615;DHT22;7907;51.368;6.730;2022-08-19T04:48:57;18.00;99.90
15615;DHT22;7907;51.368;6.730;2022-08-19T04:51:25;18.00;99.90
15615;DHT22;7907;51.368;6.730;2022-08-19T04:53:52;18.00;99.90
15615;DHT22;7907;51.368;6.730;2022-08-19T04:56:20;18.00;99.90
15615;DHT22;7907;51.368;6.730;2022-08-19T04:58:48;18.00;99.90
15615;DHT22;7907;51.368;6.730;2022-08-19T05:01:19;18.00;99.90
15615;DHT22;7907;51.368;6.730;2022-08-19T05:03:46;18.10;99.90
15615;DHT22;7907;51.368;6.730;2022-08-19T05:06:18;18.10;99.90
15615;DHT22;7907;51.368;6.730;2022-08-19T05:08:47;18.20;99.90
15615;DHT22;7907;51.368;6.730;2022-08-19T05:11:17;18.30;99.90
15615;DHT22;7907;51.368;6.730;2022-08-19T05:13:46;18.40;99.90
15615;DHT22;7907;51.368;6.730;2022-08-19T05:16:16;18.50;99.90
15615;DHT22;7907;51.368;6.730;2022-08-19T05:18:44;18.60;99.90
15615;DHT22;7907;51.368;6.730;2022-08-19T05:21:31;18.70;99.90
15615;DHT22;7907;51.368;6.730;2022-08-19T05:24:17;18.80;99.90
15615;DHT22;7907;51.368;6.730;2022-08-19T05:26:47;18.90;99.90
15615;DHT22;7907;51.368;6.730;2022-08-19T05:29:17;18.90;99.90
15615;DHT22;7907;51.368;6.730;2022-08-19T05:31:45;18.90;99.90
15615;DHT22;7907;51.368;6.730;2022-08-19T05:34:15;19.00;99.90
15615;DHT22;7907;51.368;6.730;2022-08-19T05:36:44;19.00;99.90
15615;DHT22;7907;51.368;6.730;2022-08-19T05:39:15;19.00;99.90
15615;DHT22;7907;51.368;6.730;2022-08-19T05:41:43;19.10;99.90
15615;DHT22;7907;51.368;6.730;2022-08-19T05:44:12;19.10;99.90
15615;DHT22;7907;51.368;6.730;2022-08-19T05:46:43;19.20;99.90
15615;DHT22;7907;51.368;6.730;2022-08-19T05:49:13;19.20;99.90
15615;DHT22;7907;51.368;6.730;2022-08-19T05:51:40;19.30;99.90
15615;DHT22;7907;51.368;6.730;2022-08-19T05:54:11;19.40;99.90
15615;DHT22;7907;51.368;6.730;2022-08-19T05:56:40;19.40;99.90
15615;DHT22;7907;51.368;6.730;2022-08-19T05:59:09;19.50;99.90
15615;DHT22;7907;51.368;6.730;2022-08-19T06:01:38;19.60;99.90
15615;DHT22;7907;51.368;6.730;2022-08-19T06:04:05;19.70;99.90
15615;DHT22;7907;51.368;6.730;2022-08-19T06:06:33;19.80;99.90
15615;DHT22;7907;51.368;6.730;2022-08-19T06:09:01;19.90;99.90
15615;DHT22;7907;51.368;6.730;2022-08-19T06:11:35;20.00;99.90
15615;DHT22;7907;51.368;6.730;2022-08-19T06:14:05;20.10;99.90
15615;DHT22;7907;51.368;6.730;2022-08-19T06:16:34;20.10;99.90
15615;DHT22;7907;51.368;6.730;2022-08-19T06:19:03;20.10;99.90
15615;DHT22;7907;51.368;6.730;2022-08-19T06:21:33;20.20;99.90
15615;DHT22;7907;51.368;6.730;2022-08-19T06:24:01;20.20;99.90
15615;DHT22;7907;51.368;6.730;2022-08-19T06:26:43;20.20;99.90
15615;DHT22;7907;51.368;6.730;2022-08-19T06:29:12;20.30;99.90
15615;DHT22;7907;51.368;6.730;2022-08-19T06:31:43;20.30;99.90
15615;DHT22;7907;51.368;6.730;2022-08-19T06:34:11;20.30;99.90
15615;DHT22;7907;51.368;6.730;2022-08-19T06:36:40;20.40;99.90
15615;DHT22;7907;51.368;6.730;2022-08-19T06:39:10;20.40;99.90
15615;DHT22;7907;51.368;6.730;2022-08-19T06:41:40;20.50;99.90
15615;DHT22;7907;51.368;6.730;2022-08-19T06:44:13;20.50;99.90
15615;DHT22;7907;51.368;6.730;2022-08-19T06:46:41;20.50;99.90
15615;DHT22;7907;51.368;6.730;2022-08-19T06:49:08;20.50;99.90
15615;DHT22;7907;51.368;6.730;2022-08-19T06:51:40;20.50;99.90
15615;DHT22;7907;51.368;6.730;2022-08-19T06:54:07;20.50;99.90
15615;DHT22;7907;51.368;6.730;2022-08-19T06:56:46;20.50;99.90
15615;DHT22;7907;51.368;6.730;2022-08-19T06:59:19;20.50;99.90
15615;DHT22;7907;51.368;6.730;2022-08-19T07:01:48;20.60;99.90
15615;DHT22;7907;51.368;6.730;2022-08-19T07:04:17;20.60;99.90
15615;DHT22;7907;51.368;6.730;2022-08-19T07:06:45;20.60;99.90
15615;DHT22;7907;51.368;6.730;2022-08-19T07:09:16;20.60;99.90
15615;DHT22;7907;51.368;6.730;2022-08-19T07:11:44;20.70;99.90
15615;DHT22;7907;51.368;6.730;2022-08-19T07:14:12;20.80;99.90
15615;DHT22;7907;51.368;6.730;2022-08-19T07:16:44;20.90;99.90
15615;DHT22;7907;51.368;6.730;2022-08-19T07:19:13;21.00;99.90
15615;DHT22;7907;51.368;6.730;2022-08-19T07:21:40;21.00;99.90
15615;DHT22;7907;51.368;6.730;2022-08-19T07:24:08;21.10;99.90
15615;DHT22;7907;51.368;6.730;2022-08-19T07:26:43;21.20;99.90
15615;DHT22;7907;51.368;6.730;2022-08-19T07:29:11;21.30;99.90
15615;DHT22;7907;51.368;6.730;2022-08-19T07:31:39;21.50;99.90
15615;DHT22;7907;51.368;6.730;2022-08-19T07:34:10;21.60;99.90
15615;DHT22;7907;51.368;6.730;2022-08-19T07:36:40;21.70;99.90
15615;DHT22;7907;51.368;6.730;2022-08-19T07:39:11;21.80;99.90
15615;DHT22;7907;51.368;6.730;2022-08-19T07:41:39;21.90;99.90
15615;DHT22;7907;51.368;6.730;2022-08-19T07:44:07;22.00;99.90
15615;DHT22;7907;51.368;6.730;2022-08-19T07:46:37;22.10;99.90
15615;DHT22;7907;51.368;6.730;2022-08-19T07:49:12;22.20;99.90
15615;DHT22;7907;51.368;6.730;2022-08-19T07:51:43;22.30;99.90
15615;DHT22;7907;51.368;6.730;2022-08-19T07:54:16;22.40;99.90
15615;DHT22;7907;51.368;6.730;2022-08-19T07:56:48;22.40;99.90
15615;DHT22;7907;51.368;6.730;2022-08-19T07:59:16;22.40;99.90
15615;DHT22;7907;51.368;6.730;2022-08-19T08:01:43;22.60;99.90
15615;DHT22;7907;51.368;6.730;2022-08-19T08:04:12;22.60;99.90
15615;DHT22;7907;51.368;6.730;2022-08-19T08:06:57;22.70;99.90
15615;DHT22;7907;51.368;6.730;2022-08-19T08:09:43;22.80;99.90
15615;DHT22;7907;51.368;6.730;2022-08-19T08:12:14;22.80;99.90
15615;DHT22;7907;51.368;6.730;2022-08-19T08:14:53;22.90;99.90
15615;DHT22;7907;51.368;6.730;2022-08-19T08:17:23;22.90;99.90
15615;DHT22;7907;51.368;6.730;2022-08-19T08:19:52;22.90;99.90
15615;DHT22;7907;51.368;6.730;2022-08-19T08:22:21;22.90;99.90
15615;DHT22;7907;51.368;6.730;2022-08-19T08:25:08;22.80;99.90
15615;DHT22;7907;51.368;6.730;2022-08-19T08:27:36;22.70;99.90
15615;DHT22;7907;51.368;6.730;2022-08-19T08:30:05;22.70;99.90
15615;DHT22;7907;51.368;6.730;2022-08-19T08:32:35;22.70;99.90
15615;DHT22;7907;51.368;6.730;2022-08-19T08:35:06;22.70;99.90
15615;DHT22;7907;51.368;6.730;2022-08-19T08:37:33;22.80;99.90
15615;DHT22;7907;51.368;6.730;2022-08-19T08:40:04;22.80;99.90
15615;DHT22;7907;51.368;6.730;2022-08-19T08:42:35;22.90;99.90
15615;DHT22;7907;51.368;6.730;2022-08-19T08:45:08;23.00;99.90
15615;DHT22;7907;51.368;6.730;2022-08-19T08:47:40;23.00;99.90
15615;DHT22;7907;51.368;6.730;2022-08-19T08:50:14;23.00;99.90
15615;DHT22;7907;51.368;6.730;2022-08-19T08:53:25;23.20;99.90
15615;DHT22;7907;51.368;6.730;2022-08-19T08:56:06;23.30;99.90
15615;DHT22;7907;51.368;6.730;2022-08-19T08:58:49;23.40;99.90
15615;DHT22;7907;51.368;6.730;2022-08-19T09:01:27;23.50;99.90
15615;DHT22;7907;51.368;6.730;2022-08-19T09:04:03;23.50;99.90
15615;DHT22;7907;51.368;6.730;2022-08-19T09:06:56;23.50;99.90
15615;DHT22;7907;51.368;6.730;2022-08-19T09:09:54;23.60;99.90
15615;DHT22;7907;51.368;6.730;2022-08-19T09:12:31;23.60;99.90
15615;DHT22;7907;51.368;6.730;2022-08-19T09:15:07;23.60;99.90
15615;DHT22;7907;51.368;6.730;2022-08-19T09:17:35;23.50;99.90
15615;DHT22;7907;51.368;6.730;2022-08-19T09:20:24;23.40;99.90
15615;DHT22;7907;51.368;6.730;2022-08-19T09:23:07;23.30;99.90
15615;DHT22;7907;51.368;6.730;2022-08-19T09:25:35;23.30;99.90
15615;DHT22;7907;51.368;6.730;2022-08-19T09:28:02;23.40;99.90
15615;DHT22;7907;51.368;6.730;2022-08-19T09:30:42;23.50;99.90
15615;DHT22;7907;51.368;6.730;2022-08-19T09:33:09;23.60;99.90
15615;DHT22;7907;51.368;6.730;2022-08-19T09:35:36;23.70;99.90
15615;DHT22;7907;51.368;6.730;2022-08-19T09:38:04;23.70;99.90
15615;DHT22;7907;51.368;6.730;2022-08-19T09:40:37;23.60;99.90
15615;DHT22;7907;51.368;6.730;2022-08-19T09:43:05;23.60;99.90
15615;DHT22;7907;51.368;6.730;2022-08-19T09:45:36;23.60;99.90
15615;DHT22;7907;51.368;6.730;2022-08-19T09:48:03;23.60;99.90
15615;DHT22;7907;51.368;6.730;2022-08-19T09:50:31;23.70;99.90
15615;DHT22;7907;51.368;6.730;2022-08-19T09:53:00;23.70;99.90
15615;DHT22;7907;51.368;6.730;2022-08-19T09:55:29;23.90;99.90
15615;DHT22;7907;51.368;6.730;2022-08-19T09:57:56;24.00;99.90
15615;DHT22;7907;51.368;6.730;2022-08-19T10:00:23;24.10;99.90
15615;DHT22;7907;51.368;6.730;2022-08-19T10:03:00;24.30;99.90
15615;DHT22;7907;51.368;6.730;2022-08-19T10:05:39;24.40;99.90
15615;DHT22;7907;51.368;6.730;2022-08-19T10:08:18;24.50;99.90
15615;DHT22;7907;51.368;6.730;2022-08-19T10:10:48;24.60;99.90
15615;DHT22;7907;51.368;6.730;2022-08-19T10:13:23;24.70;99.90
15615;DHT22;7907;51.368;6.730;2022-08-19T10:15:53;24.70;99.90
15615;DHT22;7907;51.368;6.730;2022-08-19T10:18:26;24.80;99.90
15615;DHT22;7907;51.368;6.730;2022-08-19T10:21:31;24.90;99.90
15615;DHT22;7907;51.368;6.730;2022-08-19T10:24:04;24.80;99.90
15615;DHT22;7907;51.368;6.730;2022-08-19T10:29:51;24.80;99.90
15615;DHT22;7907;51.368;6.730;2022-08-19T10:32:22;24.80;99.90
15615;DHT22;7907;51.368;6.730;2022-08-19T10:35:06;24.80;99.90
15615;DHT22;7907;51.368;6.730;2022-08-19T10:40:20;24.90;99.90
15615;DHT22;7907;51.368;6.730;2022-08-19T10:43:17;24.90;99.90
15615;DHT22;7907;51.368;6.730;2022-08-19T10:45:53;25.00;99.90
15615;DHT22;7907;51.368;6.730;2022-08-19T10:48:26;25.00;99.90
15615;DHT22;7907;51.368;6.730;2022-08-19T10:50:57;24.90;99.90
15615;DHT22;7907;51.368;6.730;2022-08-19T10:53:57;24.90;99.90
15615;DHT22;7907;51.368;6.730;2022-08-19T10:56:34;25.00;99.90
15615;DHT22;7907;51.368;6.730;2022-08-19T10:59:20;25.20;99.90
15615;DHT22;7907;51.368;6.730;2022-08-19T11:01:53;25.30;99.90
15615;DHT22;7907;51.368;6.730;2022-08-19T11:04:31;25.40;99.90
15615;DHT22;7907;51.368;6.730;2022-08-19T11:07:09;25.50;99.90
15615;DHT22;7907;51.368;6.730;2022-08-19T11:09:41;25.60;99.90
15615;DHT22;7907;51.368;6.730;2022-08-19T11:12:13;25.70;99.90
15615;DHT22;7907;51.368;6.730;2022-08-19T11:14:45;25.70;99.90
15615;DHT22;7907;51.368;6.730;2022-08-19T11:17:31;25.70;99.90
15615;DHT22;7907;51.368;6.730;2022-08-19T11:20:17;25.80;99.90
15615;DHT22;7907;51.368;6.730;2022-08-19T11:23:10;25.90;99.90
15615;DHT22;7907;51.368;6.730;2022-08-19T11:25:54;26.10;99.90
15615;DHT22;7907;51.368;6.730;2022-08-19T11:28:25;26.20;99.90
15615;DHT22;7907;51.368;6.730;2022-08-19T11:34:06;26.40;99.90
15615;DHT22;7907;51.368;6.730;2022-08-19T11:36:37;26.50;99.40
15615;DHT22;7907;51.368;6.730;2022-08-19T11:39:05;26.70;97.90
15615;DHT22;7907;51.368;6.730;2022-08-19T11:41:34;26.90;96.60
15615;DHT22;7907;51.368;6.730;2022-08-19T11:44:02;27.00;97.10
15615;DHT22;7907;51.368;6.730;2022-08-19T11:46:30;27.10;95.50
15615;DHT22;7907;51.368;6.730;2022-08-19T11:49:00;27.00;95.30
15615;DHT22;7907;51.368;6.730;2022-08-19T11:51:30;26.80;94.30
15615;DHT22;7907;51.368;6.730;2022-08-19T11:54:02;26.70;93.10
15615;DHT22;7907;51.368;6.730;2022-08-19T11:56:57;26.70;93.20
15615;DHT22;7907;51.368;6.730;2022-08-19T11:59:34;26.80;92.60
15615;DHT22;7907;51.368;6.730;2022-08-19T12:02:09;26.90;92.40
15615;DHT22;7907;51.368;6.730;2022-08-19T12:04:40;27.00;91.20
15615;DHT22;7907;51.368;6.730;2022-08-19T12:07:08;27.30;90.10
15615;DHT22;7907;51.368;6.730;2022-08-19T12:09:36;27.50;86.20
15615;DHT22;7907;51.368;6.730;2022-08-19T12:12:13;27.70;85.90
15615;DHT22;7907;51.368;6.730;2022-08-19T12:18:37;28.00;86.70
15615;DHT22;7907;51.368;6.730;2022-08-19T12:27:21;28.60;79.80
15615;DHT22;7907;51.368;6.730;2022-08-19T12:29:57;28.60;74.40
15615;DHT22;7907;51.368;6.730;2022-08-19T12:32:31;28.70;76.00
15615;DHT22;7907;51.368;6.730;2022-08-19T12:35:01;28.90;76.10
15615;DHT22;7907;51.368;6.730;2022-08-19T12:37:28;29.10;75.60
15615;DHT22;7907;51.368;6.730;2022-08-19T12:39:55;29.30;73.50
15615;DHT22;7907;51.368;6.730;2022-08-19T12:42:38;29.30;72.40
15615;DHT22;7907;51.368;6.730;2022-08-19T12:45:12;29.50;71.00
15615;DHT22;7907;51.368;6.730;2022-08-19T12:47:52;29.70;70.50
15615;DHT22;7907;51.368;6.730;2022-08-19T12:53:38;30.10;70.20
15615;DHT22;7907;51.368;6.730;2022-08-19T12:56:06;30.20;69.00
15615;DHT22;7907;51.368;6.730;2022-08-19T12:58:36;30.40;66.90
15615;DHT22;7907;51.368;6.730;2022-08-19T13:01:09;30.50;65.50
15615;DHT22;7907;51.368;6.730;2022-08-19T13:03:37;30.60;64.40
15615;DHT22;7907;51.368;6.730;2022-08-19T13:06:12;30.80;64.00
15615;DHT22;7907;51.368;6.730;2022-08-19T13:08:41;31.00;62.50
15615;DHT22;7907;51.368;6.730;2022-08-19T13:11:24;31.20;60.30
15615;DHT22;7907;51.368;6.730;2022-08-19T13:13:58;31.20;62.30
15615;DHT22;7907;51.368;6.730;2022-08-19T13:16:26;31.40;62.00
15615;DHT22;7907;51.368;6.730;2022-08-19T13:18:54;31.60;61.60
15615;DHT22;7907;51.368;6.730;2022-08-19T13:21:33;31.80;61.10
15615;DHT22;7907;51.368;6.730;2022-08-19T13:24:00;31.80;60.50
15615;DHT22;7907;51.368;6.730;2022-08-19T13:26:27;31.90;58.50
15615;DHT22;7907;51.368;6.730;2022-08-19T13:28:57;31.70;58.70
15615;DHT22;7907;51.368;6.730;2022-08-19T13:31:43;32.00;58.20
15615;DHT22;7907;51.368;6.730;2022-08-19T13:34:30;32.10;57.80
15615;DHT22;7907;51.368;6.730;2022-08-19T13:36:58;32.10;57.80
15615;DHT22;7907;51.368;6.730;2022-08-19T13:39:38;32.10;58.20
15615;DHT22;7907;51.368;6.730;2022-08-19T13:42:05;32.30;57.40
15615;DHT22;7907;51.368;6.730;2022-08-19T13:44:37;32.30;57.40
15615;DHT22;7907;51.368;6.730;2022-08-19T13:47:06;32.40;57.20
15615;DHT22;7907;51.368;6.730;2022-08-19T13:49:37;32.40;56.60
15615;DHT22;7907;51.368;6.730;2022-08-19T13:52:08;32.70;56.40
15615;DHT22;7907;51.368;6.730;2022-08-19T13:54:35;33.20;55.60
15615;DHT22;7907;51.368;6.730;2022-08-19T13:57:03;33.60;54.90
15615;DHT22;7907;51.368;6.730;2022-08-19T13:59:30;33.50;54.30
15615;DHT22;7907;51.368;6.730;2022-08-19T14:01:58;33.10;53.90
15615;DHT22;7907;51.368;6.730;2022-08-19T14:07:25;33.60;53.70
15615;DHT22;7907;51.368;6.730;2022-08-19T14:09:52;33.50;53.90
15615;DHT22;7907;51.368;6.730;2022-08-19T14:12:19;33.40;54.70
15615;DHT22;7907;51.368;6.730;2022-08-19T14:14:48;33.10;55.80
15615;DHT22;7907;51.368;6.730;2022-08-19T14:17:53;32.90;56.10
15615;DHT22;7907;51.368;6.730;2022-08-19T14:26:24;32.70;56.60
15615;DHT22;7907;51.368;6.730;2022-08-19T14:29:11;32.00;56.90
15615;DHT22;7907;51.368;6.730;2022-08-19T14:35:02;31.90;57.50
15615;DHT22;7907;51.368;6.730;2022-08-19T14:37:29;32.30;57.10
15615;DHT22;7907;51.368;6.730;2022-08-19T14:40:24;33.00;55.40
15615;DHT22;7907;51.368;6.730;2022-08-19T14:43:38;33.20;53.80
15615;DHT22;7907;51.368;6.730;2022-08-19T14:46:05;33.60;53.20
15615;DHT22;7907;51.368;6.730;2022-08-19T14:52:15;33.40;52.70
15615;DHT22;7907;51.368;6.730;2022-08-19T14:54:51;33.30;51.70
15615;DHT22;7907;51.368;6.730;2022-08-19T14:57:50;33.30;51.20
15615;DHT22;7907;51.368;6.730;2022-08-19T15:00:37;33.60;50.90
15615;DHT22;7907;51.368;6.730;2022-08-19T15:03:04;33.70;50.80
15615;DHT22;7907;51.368;6.730;2022-08-19T15:05:37;33.60;48.90
15615;DHT22;7907;51.368;6.730;2022-08-19T15:28:19;33.40;49.90
15615;DHT22;7907;51.368;6.730;2022-08-19T15:30:46;33.70;49.40
15615;DHT22;7907;51.368;6.730;2022-08-19T15:33:13;34.00;49.10
15615;DHT22;7907;51.368;6.730;2022-08-19T15:35:45;34.20;48.50
15615;DHT22;7907;51.368;6.730;2022-08-19T15:45:27;34.10;46.70
15615;DHT22;7907;51.368;6.730;2022-08-19T15:51:41;33.00;48.80
15615;DHT22;7907;51.368;6.730;2022-08-19T16:15:38;32.60;50.20
15615;DHT22;7907;51.368;6.730;2022-08-19T16:18:25;31.60;51.70
15615;DHT22;7907;51.368;6.730;2022-08-19T16:21:41;30.80;53.80
15615;DHT22;7907;51.368;6.730;2022-08-19T16:27:54;29.80;57.00
15615;DHT22;7907;51.368;6.730;2022-08-19T16:40:47;28.60;61.00
15615;DHT22;7907;51.368;6.730;2022-08-19T17:21:04;26.60;74.10
15615;DHT22;7907;51.368;6.730;2022-08-19T17:24:07;26.60;75.40
15615;DHT22;7907;51.368;6.730;2022-08-19T17:33:30;26.10;83.00
15615;DHT22;7907;51.368;6.730;2022-08-19T17:55:52;25.60;99.90
15615;DHT22;7907;51.368;6.730;2022-08-19T17:58:29;25.60;99.90
15615;DHT22;7907;51.368;6.730;2022-08-19T18:00:57;25.50;99.90
15615;DHT22;7907;51.368;6.730;2022-08-19T18:03:30;25.40;99.90
15615;DHT22;7907;51.368;6.730;2022-08-19T18:06:00;25.10;99.90
15615;DHT22;7907;51.368;6.730;2022-08-19T18:08:27;25.00;99.90
15615;DHT22;7907;51.368;6.730;2022-08-19T18:10:56;24.80;99.90
15615;DHT22;7907;51.368;6.730;2022-08-19T18:14:00;24.60;99.90
15615;DHT22;7907;51.368;6.730;2022-08-19T18:16:37;24.50;99.90
15615;DHT22;7907;51.368;6.730;2022-08-19T18:19:15;24.40;99.90
15615;DHT22;7907;51.368;6.730;2022-08-19T18:27:47;24.30;99.90
15615;DHT22;7907;51.368;6.730;2022-08-19T18:30:17;24.30;99.90
15615;DHT22;7907;51.368;6.730;2022-08-19T18:32:45;24.20;99.90
15615;DHT22;7907;51.368;6.730;2022-08-19T18:35:20;24.30;99.90
15615;DHT22;7907;51.368;6.730;2022-08-19T18:37:51;24.30;99.90
15615;DHT22;7907;51.368;6.730;2022-08-19T18:40:21;24.30;99.90
15615;DHT22;7907;51.368;6.730;2022-08-19T18:43:39;24.30;99.90
15615;DHT22;7907;51.368;6.730;2022-08-19T18:46:37;24.30;99.90
15615;DHT22;7907;51.368;6.730;2022-08-19T18:49:34;24.30;99.90
15615;DHT22;7907;51.368;6.730;2022-08-19T18:52:39;24.30;99.90
15615;DHT22;7907;51.368;6.730;2022-08-19T18:55:21;24.30;99.90
15615;DHT22;7907;51.368;6.730;2022-08-19T19:01:13;24.30;99.90
15615;DHT22;7907;51.368;6.730;2022-08-19T19:03:42;24.20;99.90
15615;DHT22;7907;51.368;6.730;2022-08-19T19:06:17;24.20;99.90
15615;DHT22;7907;51.368;6.730;2022-08-19T19:08:49;24.20;99.90
15615;DHT22;7907;51.368;6.730;2022-08-19T19:11:32;24.20;99.90
15615;DHT22;7907;51.368;6.730;2022-08-19T19:14:09;24.20;99.90
15615;DHT22;7907;51.368;6.730;2022-08-19T19:16:51;24.20;99.90